createdAt,value
2017-06-28T00:06:27.000Z,994.568
2017-06-28T00:16:27.000Z,994.338
2017-06-28T00:26:27.000Z,994.18
2017-06-28T00:36:27.000Z,993.981
2017-06-28T00:46:27.000Z,993.859
2017-06-28T00:56:27.000Z,993.677
2017-06-28T01:06:27.000Z,993.487
2017-06-28T01:16:27.000Z,993.323
2017-06-28T01:26:27.000Z,993.329
2017-06-28T01:36:27.000Z,993.345
2017-06-28T01:46:27.000Z,993.251
2017-06-28T01:56:27.000Z,993.082
2017-06-28T02:06:27.000Z,993.017
2017-06-28T02:16:27.000Z,992.924
2017-06-28T02:26:27.000Z,992.645
2017-06-28T02:36:28.000Z,992.542
2017-06-28T02:46:28.000Z,992.502
2017-06-28T02:56:28.000Z,992.54
2017-06-28T03:06:28.000Z,992.342
2017-06-28T03:16:28.000Z,992.246
2017-06-28T03:26:28.000Z,992.11
2017-06-28T03:36:28.000Z,991.996
2017-06-28T03:46:28.000Z,991.873
2017-06-28T03:56:28.000Z,991.893
2017-06-28T04:06:28.000Z,991.89
2017-06-28T04:16:28.000Z,991.716
2017-06-28T04:26:28.000Z,991.541
2017-06-28T04:36:28.000Z,991.471
2017-06-28T04:46:28.000Z,991.511
2017-06-28T04:56:28.000Z,991.448
2017-06-28T05:06:28.000Z,991.256
2017-06-28T05:16:28.000Z,991.234
2017-06-28T05:26:28.000Z,991.319
2017-06-28T05:36:28.000Z,991.275
2017-06-28T05:46:28.000Z,991.292
2017-06-28T05:56:28.000Z,991.29
2017-06-28T06:06:28.000Z,991.287
2017-06-28T06:16:28.000Z,991.296
2017-06-28T06:26:28.000Z,991.231
2017-06-28T06:36:28.000Z,991.148
2017-06-28T06:46:28.000Z,991.042
2017-06-28T06:56:28.000Z,990.978
2017-06-28T07:06:28.000Z,990.945
2017-06-28T07:16:28.000Z,990.903
2017-06-28T07:26:28.000Z,990.79
2017-06-28T07:36:28.000Z,990.766
2017-06-28T07:46:28.000Z,990.817
2017-06-28T07:56:28.000Z,990.793
2017-06-28T08:06:28.000Z,990.777
2017-06-28T08:16:28.000Z,990.789
2017-06-28T08:26:28.000Z,990.835
2017-06-28T08:36:28.000Z,990.727
2017-06-28T08:46:28.000Z,990.637
2017-06-28T08:56:28.000Z,990.647
2017-06-28T09:06:28.000Z,990.556
2017-06-28T09:16:28.000Z,990.421
2017-06-28T09:26:28.000Z,990.326
2017-06-28T09:36:28.000Z,990.274
2017-06-28T09:46:28.000Z,990.245
2017-06-28T09:56:28.000Z,990.096
2017-06-28T10:06:28.000Z,989.97
2017-06-28T10:16:28.000Z,989.957
2017-06-28T10:26:28.000Z,989.858
2017-06-28T10:36:28.000Z,989.841
2017-06-28T10:46:28.000Z,989.779
2017-06-28T10:56:28.000Z,989.824
2017-06-28T11:06:29.000Z,989.926
2017-06-28T11:16:29.000Z,989.965
2017-06-28T11:26:29.000Z,989.78
2017-06-28T11:36:29.000Z,989.66
2017-06-28T11:46:29.000Z,989.698
2017-06-28T11:56:29.000Z,989.514
2017-06-28T12:06:29.000Z,989.537
2017-06-28T12:16:29.000Z,989.429
2017-06-28T12:26:29.000Z,989.384
2017-06-28T12:36:29.000Z,989.264
2017-06-28T12:46:29.000Z,989.176
2017-06-28T12:56:29.000Z,989.117
2017-06-28T13:06:29.000Z,989.068
2017-06-28T13:16:29.000Z,988.869
2017-06-28T13:26:29.000Z,988.728
2017-06-28T13:36:29.000Z,988.693
2017-06-28T13:46:29.000Z,988.573
2017-06-28T13:56:29.000Z,988.569
2017-06-28T14:06:29.000Z,988.71
2017-06-28T14:16:29.000Z,988.453
2017-06-28T14:26:29.000Z,988.354
2017-06-28T14:36:29.000Z,988.189
2017-06-28T14:46:29.000Z,988.007
2017-06-28T14:56:29.000Z,988.705
2017-06-28T15:06:29.000Z,988.741
2017-06-28T15:26:29.000Z,988.478
2017-06-28T15:36:29.000Z,988.633
2017-06-28T15:46:29.000Z,988.51
2017-06-28T15:56:29.000Z,988.404
2017-06-28T16:06:29.000Z,988.448
2017-06-28T16:16:29.000Z,988.494
2017-06-28T16:26:29.000Z,988.517
2017-06-28T16:36:29.000Z,988.683
2017-06-28T16:46:29.000Z,988.7
2017-06-28T16:56:29.000Z,988.728
2017-06-28T17:06:29.000Z,988.625
2017-06-28T17:16:29.000Z,988.669
2017-06-28T17:26:29.000Z,988.729
2017-06-28T17:36:29.000Z,988.772
2017-06-28T17:46:29.000Z,988.771
2017-06-28T18:06:29.000Z,988.664
2017-06-28T18:16:29.000Z,988.724
2017-06-28T18:26:29.000Z,988.75
2017-06-28T18:36:30.000Z,988.72
2017-06-28T18:46:29.000Z,988.637
2017-06-28T18:56:29.000Z,988.713
2017-06-28T19:06:29.000Z,988.689
2017-06-28T19:16:29.000Z,988.666
2017-06-28T19:26:30.000Z,988.721
2017-06-28T19:36:32.000Z,988.757
2017-06-28T19:46:30.000Z,988.722
2017-06-28T19:56:30.000Z,988.831
2017-06-28T20:06:30.000Z,988.728
2017-06-28T20:16:30.000Z,988.666
2017-06-28T20:26:30.000Z,988.552
2017-06-28T20:36:30.000Z,988.626
2017-06-28T20:46:30.000Z,988.549
2017-06-28T20:56:30.000Z,988.572
2017-06-28T21:06:30.000Z,988.566
2017-06-28T21:16:30.000Z,988.53
2017-06-28T21:26:30.000Z,988.664
2017-06-28T21:36:30.000Z,988.503
2017-06-28T21:46:30.000Z,988.626
2017-06-28T21:56:30.000Z,988.622
2017-06-28T22:06:30.000Z,988.6
2017-06-28T22:16:30.000Z,988.455
2017-06-28T22:26:30.000Z,988.358
2017-06-28T22:36:30.000Z,988.315
2017-06-28T22:46:30.000Z,988.275
2017-06-28T22:56:30.000Z,988.309
2017-06-28T23:06:30.000Z,988.326
2017-06-28T23:16:30.000Z,988.346
2017-06-28T23:36:30.000Z,988.277
2017-06-28T23:46:30.000Z,988.226
2017-06-28T23:56:30.000Z,988.178
